createdAt,value
2023-03-22T00:16:46.040Z,5.90
2023-03-22T00:19:12.638Z,7.40
2023-03-22T00:24:06.556Z,5.80
2023-03-22T00:29:00.692Z,5.70
2023-03-22T00:31:27.342Z,5.30
2023-03-22T00:33:53.991Z,5.20
2023-03-22T00:36:20.688Z,5.30
2023-03-22T00:38:47.243Z,5.40
2023-03-22T00:41:16.076Z,5.30
2023-03-22T00:43:43.064Z,5.80
2023-03-22T00:46:10.348Z,5.50
2023-03-22T00:48:36.978Z,5.50
2023-03-22T00:51:03.624Z,5.50
2023-03-22T00:53:30.443Z,5.30
2023-03-22T00:55:57.051Z,5.00
2023-03-22T00:58:23.826Z,4.60
2023-03-22T01:00:50.631Z,4.40
2023-03-22T01:03:17.450Z,4.90
2023-03-22T01:05:49.282Z,5.00
2023-03-22T01:08:16.703Z,5.40
2023-03-22T01:10:44.229Z,5.30
2023-03-22T01:13:11.287Z,5.10
2023-03-22T01:15:37.894Z,5.30
2023-03-22T01:18:04.490Z,4.60
2023-03-22T01:20:31.761Z,6.00
2023-03-22T01:22:58.296Z,4.70
2023-03-22T01:25:24.917Z,4.70
2023-03-22T01:27:51.491Z,4.90
2023-03-22T01:30:18.216Z,5.00
2023-03-22T01:32:44.828Z,4.40
2023-03-22T01:35:11.403Z,4.50
2023-03-22T01:40:05.529Z,4.80
2023-03-22T01:42:32.082Z,5.00
2023-03-22T01:47:25.582Z,4.40
2023-03-22T01:57:13.407Z,4.80
2023-03-22T02:02:07.710Z,4.50
2023-03-22T02:04:35.780Z,4.50
2023-03-22T02:07:09.489Z,4.40
2023-03-22T02:09:42.530Z,4.20
2023-03-22T02:14:42.479Z,4.40
2023-03-22T02:17:16.746Z,4.20
2023-03-22T02:22:23.776Z,4.20
2023-03-22T07:09:46.277Z,6.40
2023-03-22T07:12:12.843Z,6.50
2023-03-22T07:14:39.637Z,6.50
2023-03-22T07:17:06.257Z,6.50
2023-03-22T07:19:33.213Z,6.40
2023-03-22T07:21:59.855Z,6.90
2023-03-22T07:24:26.530Z,7.90
2023-03-22T07:26:53.087Z,7.00
2023-03-22T07:29:19.669Z,7.40
2023-03-22T07:31:46.294Z,7.70
2023-03-22T07:34:12.926Z,8.20
2023-03-22T07:36:39.513Z,8.50
2023-03-22T07:39:06.269Z,9.00
2023-03-22T07:41:33.006Z,8.60
2023-03-22T07:44:11.389Z,9.60
2023-03-22T07:46:41.862Z,8.90
2023-03-22T07:49:08.467Z,9.20
2023-03-22T07:51:35.219Z,9.10
2023-03-22T07:54:01.910Z,10.70
2023-03-22T07:56:28.567Z,10.90
2023-03-22T07:58:55.233Z,10.10
2023-03-22T08:01:22.156Z,10.10
2023-03-22T08:03:48.756Z,10.20
2023-03-22T08:08:43.205Z,10.40
2023-03-22T08:11:09.919Z,11.00
2023-03-22T08:13:36.659Z,10.50
2023-03-22T08:16:03.571Z,10.90
2023-03-22T08:18:30.467Z,10.60
2023-03-22T08:20:58.031Z,10.80
2023-03-22T08:23:38.468Z,10.80
2023-03-22T08:26:07.965Z,11.10
2023-03-22T08:28:34.508Z,11.30
2023-03-22T08:31:01.659Z,11.50
2023-03-22T08:36:09.536Z,11.80
2023-03-22T08:41:03.493Z,12.30
2023-03-22T08:43:30.243Z,12.50
2023-03-22T08:45:57.571Z,13.10
2023-03-22T08:48:25.046Z,13.20
2023-03-22T08:50:51.696Z,14.00
2023-03-22T08:53:18.362Z,13.60
2023-03-22T08:55:45.089Z,13.60
2023-03-22T08:58:16.503Z,13.00
2023-03-22T09:00:49.087Z,13.30
2023-03-22T09:03:16.663Z,13.50
2023-03-22T09:05:43.705Z,14.10
2023-03-22T09:08:18.114Z,14.00
2023-03-22T09:10:47.971Z,13.40
2023-03-22T09:13:16.743Z,13.40
2023-03-22T09:15:44.859Z,13.50
2023-03-22T09:18:11.865Z,13.60
2023-03-22T09:20:39.102Z,14.20
2023-03-22T09:23:05.919Z,14.00
2023-03-22T09:25:32.826Z,13.40
2023-03-22T09:27:59.490Z,13.60
2023-03-22T09:30:26.293Z,13.70
2023-03-22T09:32:53.004Z,14.20
2023-03-22T09:35:19.628Z,13.90
2023-03-22T09:37:47.478Z,14.00
2023-03-22T09:40:14.376Z,14.20
2023-03-22T09:42:41.029Z,14.20
2023-03-22T09:45:12.777Z,14.20
2023-03-22T09:47:44.982Z,14.30
2023-03-22T09:50:14.984Z,14.30
2023-03-22T09:55:28.459Z,14.70
2023-03-22T09:58:04.329Z,14.60
2023-03-22T10:00:50.662Z,15.00
2023-03-22T10:03:24.584Z,15.00
2023-03-22T10:05:57.334Z,15.00
2023-03-22T10:08:33.010Z,15.30
2023-03-22T10:10:59.966Z,14.80
2023-03-22T10:16:28.801Z,14.30
2023-03-22T10:22:13.084Z,14.70
2023-03-22T10:24:41.170Z,15.10
2023-03-22T10:27:14.140Z,16.50
2023-03-22T10:29:43.552Z,15.60
2023-03-22T10:32:17.963Z,14.60
2023-03-22T10:42:18.058Z,16.20
2023-03-22T10:44:53.235Z,16.60
2023-03-22T10:49:53.132Z,16.60
2023-03-22T10:52:32.908Z,16.90
2023-03-22T10:55:03.710Z,16.30
2023-03-22T10:57:31.090Z,17.20
2023-03-22T10:59:57.793Z,15.20
2023-03-22T11:02:24.493Z,14.70
2023-03-22T11:04:52.659Z,17.90
2023-03-22T11:07:36.493Z,18.20
2023-03-22T11:12:30.463Z,17.60
2023-03-22T11:15:01.291Z,17.00
2023-03-22T11:22:36.512Z,18.40
2023-03-22T11:25:07.078Z,17.40
2023-03-22T11:27:33.897Z,18.00
2023-03-22T11:32:31.598Z,16.70
2023-03-22T11:35:15.698Z,18.10
2023-03-22T11:37:43.213Z,17.70
2023-03-22T11:40:13.967Z,18.90
2023-03-22T11:42:40.654Z,17.00
2023-03-22T11:45:08.119Z,18.00
2023-03-22T11:47:40.746Z,17.80
2023-03-22T11:50:10.878Z,18.20
2023-03-22T11:52:37.514Z,17.70
2023-03-22T11:55:04.369Z,19.50
2023-03-22T11:57:33.722Z,18.80
2023-03-22T12:00:00.459Z,19.40
2023-03-22T12:02:29.544Z,18.90
2023-03-22T12:05:01.700Z,20.60
2023-03-22T12:07:30.047Z,20.20
2023-03-22T12:10:14.470Z,19.60
2023-03-22T12:12:45.641Z,16.40
2023-03-22T12:17:43.986Z,16.20
2023-03-22T12:20:16.199Z,17.20
2023-03-22T12:22:45.818Z,16.90
2023-03-22T12:25:14.916Z,18.30
2023-03-22T12:27:45.339Z,19.30
2023-03-22T12:30:21.263Z,19.00
2023-03-22T12:33:10.580Z,19.20
2023-03-22T12:35:39.751Z,20.40
2023-03-22T12:43:09.102Z,16.60
2023-03-22T12:45:40.139Z,17.80
2023-03-22T12:48:06.998Z,18.70
2023-03-22T12:50:36.034Z,18.90
2023-03-22T12:53:04.378Z,16.60
2023-03-22T12:55:34.278Z,17.90
2023-03-22T12:58:01.581Z,18.80
2023-03-22T13:00:33.316Z,18.70
2023-03-22T13:03:10.366Z,18.20
2023-03-22T13:05:37.675Z,19.10
2023-03-22T13:08:05.928Z,19.70
2023-03-22T13:10:33.084Z,20.00
2023-03-22T13:13:08.922Z,19.90
2023-03-22T13:15:41.746Z,20.90
2023-03-22T13:18:27.950Z,20.50
2023-03-22T13:21:09.873Z,18.40
2023-03-22T13:26:06.083Z,17.70
2023-03-22T13:28:37.210Z,17.60
2023-03-22T13:31:04.255Z,19.20
2023-03-22T13:33:32.272Z,18.00
2023-03-22T13:36:23.320Z,19.10
2023-03-22T13:38:54.662Z,18.30
2023-03-22T13:41:27.734Z,17.90
2023-03-22T13:43:55.774Z,17.60
2023-03-22T13:48:54.724Z,17.20
2023-03-22T13:51:25.527Z,17.10
2023-03-22T13:58:46.121Z,16.90
2023-03-22T14:01:14.592Z,16.80
2023-03-22T14:03:42.658Z,17.60
2023-03-22T14:06:34.049Z,15.60
2023-03-22T14:09:02.623Z,16.40
2023-03-22T14:11:34.011Z,16.20
2023-03-22T14:14:13.248Z,17.10
2023-03-22T14:16:45.740Z,16.90
2023-03-22T14:19:29.071Z,18.60
